createdAt,value
2023-02-02T00:04:07.189Z,0
2023-02-02T00:09:09.067Z,0
2023-02-02T00:14:11.127Z,0
2023-02-02T00:19:13.289Z,0
2023-02-02T00:24:15.129Z,0
2023-02-02T00:29:17.122Z,0
2023-02-02T00:34:18.997Z,0
2023-02-02T00:39:20.947Z,0.88715
2023-02-02T00:44:22.956Z,0.88715
2023-02-02T00:49:24.957Z,0
2023-02-02T00:54:26.753Z,0
2023-02-02T00:59:28.877Z,0.88715
2023-02-02T01:04:30.909Z,0
2023-02-02T01:09:32.810Z,0.88715
2023-02-02T01:14:34.513Z,0
2023-02-02T01:19:36.454Z,0
2023-02-02T01:24:38.057Z,0.88715
2023-02-02T01:29:39.574Z,0.88715
2023-02-02T01:34:41.174Z,0
2023-02-02T01:39:42.641Z,0.88715
2023-02-02T01:44:44.329Z,0
2023-02-02T01:49:45.989Z,0
2023-02-02T01:54:47.627Z,0.88715
2023-02-02T01:59:49.213Z,0
2023-02-02T02:04:50.698Z,0
2023-02-02T02:09:52.154Z,0
2023-02-02T02:14:53.975Z,0
2023-02-02T02:19:55.745Z,0
2023-02-02T02:24:57.711Z,0.88715
2023-02-02T02:29:59.376Z,0
2023-02-02T02:35:00.989Z,0.88715
2023-02-02T02:40:02.548Z,0
2023-02-02T02:45:04.605Z,0
2023-02-02T02:50:06.296Z,0
2023-02-02T02:55:07.782Z,0
2023-02-02T03:00:09.587Z,0.88715
2023-02-02T03:05:11.523Z,0.88715
2023-02-02T03:10:13.189Z,0.88715
2023-02-02T03:15:14.765Z,0.88715
2023-02-02T03:20:16.644Z,0.4148
2023-02-02T03:25:18.251Z,1.2444
2023-02-02T03:30:20.191Z,4.4078
2023-02-02T03:35:22.069Z,8.4467
2023-02-02T03:40:23.818Z,20.4341
2023-02-02T03:45:25.851Z,37.4378
2023-02-02T03:50:27.971Z,59.4578
2023-02-02T03:55:29.559Z,88.26445
2023-02-02T04:00:31.376Z,116.8315
2023-02-02T04:05:33.196Z,163.914
2023-02-02T04:10:35.015Z,207.14205
2023-02-02T04:15:36.926Z,252.26975
2023-02-02T04:20:38.581Z,290.7401
2023-02-02T04:25:40.088Z,330.7602
2023-02-02T04:30:41.743Z,405.0463
2023-02-02T04:35:43.297Z,435.32855
2023-02-02T04:40:44.862Z,433.1513
2023-02-02T04:45:46.404Z,469.4634
2023-02-02T04:50:48.125Z,533.1807
2023-02-02T04:55:49.793Z,560.198
2023-02-02T05:00:51.302Z,607.46495
2023-02-02T05:05:52.830Z,660.06195
2023-02-02T05:10:54.538Z,681.88035
2023-02-02T05:15:56.125Z,698.8289
2023-02-02T05:20:57.728Z,700.2132
2023-02-02T05:25:59.233Z,715.74315
2023-02-02T05:31:01.012Z,691.1617
2023-02-02T05:36:02.538Z,755.48935
2023-02-02T05:41:04.027Z,746.7136
2023-02-02T05:46:05.747Z,801.9689
2023-02-02T05:51:07.498Z,830.26205
2023-02-02T05:56:08.939Z,859.5516
2023-02-02T06:01:10.569Z,886.40715
2023-02-02T06:06:12.107Z,919.95805
2023-02-02T06:11:13.738Z,894.96785
2023-02-02T06:16:15.424Z,941.92475
2023-02-02T06:21:17.167Z,925.5124
2023-02-02T06:26:18.835Z,936.15535
2023-02-02T06:31:20.542Z,915.5938
2023-02-02T06:36:22.213Z,932.8751
2023-02-02T06:41:23.686Z,963.08505
2023-02-02T06:46:25.509Z,958.3102
2023-02-02T06:51:27.505Z,989.12865
2023-02-02T06:56:29.320Z,989.66485
2023-02-02T07:01:31.463Z,965.4333
2023-02-02T07:06:33.352Z,985.97955
2023-02-02T07:11:37.009Z,996.41905
2023-02-02T07:16:40.655Z,1014.06925
2023-02-02T07:21:42.388Z,1036.25655
2023-02-02T07:26:44.030Z,1041.69875
2023-02-02T07:31:45.798Z,1103.94415
2023-02-02T07:36:47.374Z,1112.04095
2023-02-02T07:41:49.320Z,1153.1163
2023-02-02T07:46:50.788Z,1194.35525
2023-02-02T07:51:53.047Z,1225.09955
2023-02-02T07:56:54.845Z,1279.04655
2023-02-02T08:01:56.843Z,1285.6316
2023-02-02T08:06:58.790Z,1392.7081
2023-02-02T08:12:00.533Z,1506.35435
2023-02-02T08:17:02.465Z,1522.4405
2023-02-02T08:22:04.987Z,1367.5891
2023-02-02T08:27:06.815Z,1584.1867
2023-02-02T08:32:08.807Z,1545.29045
2023-02-02T08:37:10.607Z,1589.6558
2023-02-02T08:42:12.427Z,1700.2007
2023-02-02T08:47:14.027Z,1804.6263
2023-02-02T08:52:16.370Z,1418.31705
2023-02-02T08:57:18.170Z,2004.44685
2023-02-02T09:02:20.264Z,1426.38745
2023-02-02T09:07:22.085Z,2142.4178
2023-02-02T09:12:23.879Z,1149.54415
2023-02-02T09:17:25.995Z,991.69245
2023-02-02T09:22:28.904Z,846.03345
2023-02-02T09:27:30.843Z,860.42055
2023-02-02T09:32:32.869Z,1014.6194
2023-02-02T09:37:34.871Z,1301.70615
2023-02-02T09:42:36.479Z,1560.92195
2023-02-02T09:47:38.183Z,1562.5097
2023-02-02T09:52:40.078Z,1382.68575
2023-02-02T09:57:41.531Z,1432.0368
2023-02-02T10:02:43.047Z,1658.19015
2023-02-02T10:07:44.535Z,2041.5524
2023-02-02T10:12:46.015Z,2224.9875
2023-02-02T10:17:48.002Z,2253.6667
2023-02-02T10:22:50.126Z,2304.1569
2023-02-02T10:27:51.590Z,2436.2616
2023-02-02T10:32:53.434Z,1316.82045
2023-02-02T10:37:54.956Z,1799.16425
2023-02-02T10:42:57.209Z,2645.35055
2023-02-02T10:47:59.599Z,1174.3995
2023-02-02T10:53:01.509Z,871.8013
2023-02-02T10:58:03.790Z,584.06015
2023-02-02T11:03:05.717Z,454.42745
2023-02-02T11:08:07.693Z,335.453
2023-02-02T11:13:09.580Z,312.6572
2023-02-02T11:18:11.263Z,290.19415
2023-02-02T11:23:13.167Z,258.23285
2023-02-02T11:28:14.822Z,259.9842
2023-02-02T11:33:16.879Z,251.1686
2023-02-02T11:38:18.689Z,244.5474
2023-02-02T11:43:20.809Z,236.1007
2023-02-02T11:48:22.865Z,219.76065
2023-02-02T11:53:25.658Z,199.32655
2023-02-02T11:58:27.479Z,189.9576
2023-02-02T12:03:29.410Z,199.7506
2023-02-02T12:08:31.388Z,226.01295
2023-02-02T12:13:33.196Z,238.9416
2023-02-02T12:18:35.099Z,271.69585
2023-02-02T12:23:37.182Z,317.8028
2023-02-02T12:28:38.962Z,339.80565
2023-02-02T12:33:40.923Z,364.5924
2023-02-02T12:38:42.821Z,432.86765
2023-02-02T12:43:44.287Z,471.08125
2023-02-02T12:48:46.019Z,602.35685
2023-02-02T12:53:48.446Z,690.55085
2023-02-02T12:59:37.123Z,629.9845
2023-02-02T13:04:38.969Z,606.139
2023-02-02T13:09:40.946Z,610.60195
2023-02-02T13:14:42.604Z,712.8466
2023-02-02T13:19:44.428Z,893.54925
2023-02-02T13:24:46.675Z,873.6305
2023-02-02T13:29:48.692Z,1000.388
2023-02-02T13:34:50.531Z,892.3874
2023-02-02T13:39:51.980Z,859.59515
2023-02-02T13:44:53.461Z,865.29225
2023-02-02T13:49:55.092Z,785.54495
2023-02-02T13:54:57.254Z,808.4872
2023-02-02T13:59:59.160Z,957.7249
2023-02-02T14:05:00.648Z,845.6474
2023-02-02T14:10:02.536Z,907.7065
2023-02-02T14:15:04.264Z,896.77065
2023-02-02T14:20:06.265Z,946.43545
2023-02-02T14:25:08.239Z,1120.07015
2023-02-02T14:30:10.132Z,1461.53215
2023-02-02T14:35:11.848Z,2583.1307
2023-02-02T14:40:13.504Z,2298.32595
2023-02-02T14:45:15.255Z,2699.5289
2023-02-02T14:50:17.127Z,2463.8124
2023-02-02T14:55:18.753Z,1103.68285
2023-02-02T15:00:20.269Z,2232.5417
2023-02-02T15:05:22.040Z,2365.67895
2023-02-02T15:10:23.768Z,2204.8589
2023-02-02T15:15:25.732Z,2166.44555
2023-02-02T15:20:27.714Z,2025.3255
2023-02-02T15:25:29.724Z,1852.49905
2023-02-02T15:30:31.594Z,1461.27725
2023-02-02T15:35:33.642Z,870.0903
2023-02-02T15:40:35.428Z,494.3623
2023-02-02T15:45:37.226Z,370.8183
2023-02-02T15:50:39.325Z,324.3633
2023-02-02T15:55:41.643Z,291.9798
2023-02-02T16:00:43.452Z,277.7257
2023-02-02T16:05:44.932Z,210.3004
2023-02-02T16:10:46.883Z,160.4873
2023-02-02T16:15:48.411Z,129.94645
2023-02-02T16:20:50.229Z,104.73565
2023-02-02T16:25:52.284Z,93.11715
2023-02-02T16:30:53.937Z,73.3657
2023-02-02T16:35:55.465Z,55.107
2023-02-02T16:40:57.211Z,40.0391
2023-02-02T16:45:58.790Z,31.3338
2023-02-02T16:51:00.657Z,29.36
2023-02-02T16:56:02.711Z,17.18815
2023-02-02T17:01:14.562Z,11.19445
2023-02-02T17:06:17.806Z,4.0389
2023-02-02T17:11:19.736Z,3.67
2023-02-02T17:16:21.738Z,0.47405
2023-02-02T17:21:23.719Z,0
2023-02-02T17:26:26.113Z,0.88715
2023-02-02T17:31:28.134Z,0
2023-02-02T17:36:30.118Z,0.88715
2023-02-02T17:41:32.053Z,0
2023-02-02T17:46:33.789Z,0
2023-02-02T17:51:35.473Z,0.88715
2023-02-02T17:56:37.687Z,0
2023-02-02T18:01:39.725Z,0
2023-02-02T18:06:42.039Z,0
2023-02-02T18:11:43.756Z,0
2023-02-02T18:16:45.212Z,0
2023-02-02T18:21:46.768Z,0
2023-02-02T18:26:48.790Z,0
2023-02-02T18:31:50.733Z,0.88715
2023-02-02T18:36:52.498Z,0
2023-02-02T18:41:54.175Z,0
2023-02-02T18:46:55.759Z,0
2023-02-02T18:51:57.393Z,0
2023-02-02T18:56:59.083Z,0
2023-02-02T19:02:02.785Z,0
2023-02-02T19:07:04.640Z,0.88715
2023-02-02T19:12:06.443Z,0
2023-02-02T19:17:08.225Z,0.88715
2023-02-02T19:22:10.310Z,0
2023-02-02T19:27:12.453Z,0
2023-02-02T19:32:14.979Z,0.88715
2023-02-02T19:37:16.833Z,0
2023-02-02T19:42:18.942Z,0.88715
2023-02-02T19:47:20.832Z,0.88715
2023-02-02T19:52:22.452Z,0
2023-02-02T19:57:24.546Z,0.88715
2023-02-02T20:02:26.338Z,0
2023-02-02T20:07:28.219Z,0
2023-02-02T20:12:30.036Z,0
2023-02-02T20:17:31.959Z,0
2023-02-02T20:22:34.287Z,0
2023-02-02T20:27:36.280Z,0
2023-02-02T20:32:38.098Z,0
2023-02-02T20:37:40.137Z,0.88715
2023-02-02T20:42:41.899Z,0
2023-02-02T20:47:43.401Z,0.88715
2023-02-02T20:52:44.902Z,0.88715
2023-02-02T20:57:46.872Z,0.88715
2023-02-02T21:02:48.328Z,0.88715
2023-02-02T21:07:49.957Z,0
2023-02-02T21:12:52.116Z,0
2023-02-02T21:17:53.795Z,0.88715
2023-02-02T21:22:55.467Z,0.88715
2023-02-02T21:27:57.709Z,0.88715
2023-02-02T21:32:59.318Z,0
2023-02-02T21:38:00.793Z,0.88715
2023-02-02T21:43:02.572Z,0.88715
2023-02-02T21:48:04.290Z,0
2023-02-02T21:53:05.881Z,0.88715
2023-02-02T21:58:07.766Z,0
2023-02-02T22:03:09.653Z,0
2023-02-02T22:08:11.641Z,0.88715
2023-02-02T22:13:13.579Z,0
2023-02-02T22:18:15.585Z,0.88715
2023-02-02T22:23:17.461Z,0.88715
2023-02-02T22:28:19.706Z,0
2023-02-02T22:33:21.659Z,0.88715
2023-02-02T22:38:23.821Z,0.88715
2023-02-02T22:43:25.801Z,0
2023-02-02T22:48:27.514Z,0
2023-02-02T22:53:29.242Z,0.88715
2023-02-02T22:58:31.189Z,0
2023-02-02T23:03:33.040Z,0
2023-02-02T23:08:34.954Z,0
2023-02-02T23:13:36.862Z,0
2023-02-02T23:18:38.694Z,0.88715
2023-02-02T23:23:40.900Z,0
2023-02-02T23:28:42.881Z,0
2023-02-02T23:33:44.445Z,0.88715
2023-02-02T23:38:46.451Z,0.88715
2023-02-02T23:43:47.991Z,0
2023-02-02T23:48:49.667Z,0.88715
2023-02-02T23:53:51.184Z,0.88715
2023-02-02T23:58:52.880Z,0.88715
